sensor_id;sensor_type;location;lat;lon;timestamp;temperature;humidity
26212;DHT22;13951;49.516;6.094;2023-05-10T00:00:50;13.40;99.90
26212;DHT22;13951;49.516;6.094;2023-05-10T00:03:23;13.40;99.90
26212;DHT22;13951;49.516;6.094;2023-05-10T00:05:56;13.40;99.90
26212;DHT22;13951;49.516;6.094;2023-05-10T00:08:29;13.40;99.90
26212;DHT22;13951;49.516;6.094;2023-05-10T00:11:03;13.40;99.90
26212;DHT22;13951;49.516;6.094;2023-05-10T00:13:36;13.40;99.90
26212;DHT22;13951;49.516;6.094;2023-05-10T00:16:09;13.40;99.90
26212;DHT22;13951;49.516;6.094;2023-05-10T00:18:43;13.40;99.90
26212;DHT22;13951;49.516;6.094;2023-05-10T00:21:16;13.30;99.90
26212;DHT22;13951;49.516;6.094;2023-05-10T00:23:48;13.40;99.90
26212;DHT22;13951;49.516;6.094;2023-05-10T00:26:21;13.40;99.90
26212;DHT22;13951;49.516;6.094;2023-05-10T00:28:57;13.40;99.90
26212;DHT22;13951;49.516;6.094;2023-05-10T00:31:31;13.40;99.90
26212;DHT22;13951;49.516;6.094;2023-05-10T00:34:04;13.40;99.90
26212;DHT22;13951;49.516;6.094;2023-05-10T00:36:37;13.40;99.90
26212;DHT22;13951;49.516;6.094;2023-05-10T00:39:11;13.40;99.90
26212;DHT22;13951;49.516;6.094;2023-05-10T00:41:45;13.40;99.90
26212;DHT22;13951;49.516;6.094;2023-05-10T00:44:18;13.40;99.90
26212;DHT22;13951;49.516;6.094;2023-05-10T00:46:51;13.40;99.90
26212;DHT22;13951;49.516;6.094;2023-05-10T00:49:25;13.40;99.90
26212;DHT22;13951;49.516;6.094;2023-05-10T00:51:58;13.40;99.90
26212;DHT22;13951;49.516;6.094;2023-05-10T00:54:31;13.40;99.90
26212;DHT22;13951;49.516;6.094;2023-05-10T00:57:04;13.40;99.90
26212;DHT22;13951;49.516;6.094;2023-05-10T00:59:38;13.40;99.90
26212;DHT22;13951;49.516;6.094;2023-05-10T01:02:11;13.40;99.90
26212;DHT22;13951;49.516;6.094;2023-05-10T01:04:44;13.40;99.90
26212;DHT22;13951;49.516;6.094;2023-05-10T01:07:17;13.40;99.90
26212;DHT22;13951;49.516;6.094;2023-05-10T01:09:51;13.40;99.90
26212;DHT22;13951;49.516;6.094;2023-05-10T01:12:24;13.30;99.90
26212;DHT22;13951;49.516;6.094;2023-05-10T01:14:57;13.40;99.90
26212;DHT22;13951;49.516;6.094;2023-05-10T01:17:31;13.40;99.90
26212;DHT22;13951;49.516;6.094;2023-05-10T01:20:06;13.30;99.90
26212;DHT22;13951;49.516;6.094;2023-05-10T01:34:25;13.30;99.90
26212;DHT22;13951;49.516;6.094;2023-05-10T01:37:09;13.30;99.90
26212;DHT22;13951;49.516;6.094;2023-05-10T01:40:20;13.40;99.90
26212;DHT22;13951;49.516;6.094;2023-05-10T01:43:01;13.40;99.90
26212;DHT22;13951;49.516;6.094;2023-05-10T01:48:26;13.30;99.90
26212;DHT22;13951;49.516;6.094;2023-05-10T01:51:00;13.30;99.90
26212;DHT22;13951;49.516;6.094;2023-05-10T01:53:35;13.30;99.90
26212;DHT22;13951;49.516;6.094;2023-05-10T01:56:11;13.20;99.90
26212;DHT22;13951;49.516;6.094;2023-05-10T01:58:44;13.20;99.90
26212;DHT22;13951;49.516;6.094;2023-05-10T02:01:21;13.20;99.90
26212;DHT22;13951;49.516;6.094;2023-05-10T02:03:57;13.10;99.90
26212;DHT22;13951;49.516;6.094;2023-05-10T02:06:31;13.10;99.90
26212;DHT22;13951;49.516;6.094;2023-05-10T02:09:05;13.10;99.90
26212;DHT22;13951;49.516;6.094;2023-05-10T02:11:41;13.00;99.90
26212;DHT22;13951;49.516;6.094;2023-05-10T02:14:16;13.00;99.90
26212;DHT22;13951;49.516;6.094;2023-05-10T02:16:52;12.90;99.90
26212;DHT22;13951;49.516;6.094;2023-05-10T02:19:27;12.90;99.90
26212;DHT22;13951;49.516;6.094;2023-05-10T02:22:03;12.90;99.90
26212;DHT22;13951;49.516;6.094;2023-05-10T02:24:38;12.90;99.90
26212;DHT22;13951;49.516;6.094;2023-05-10T02:27:13;12.90;99.90
26212;DHT22;13951;49.516;6.094;2023-05-10T02:29:49;12.80;99.90
26212;DHT22;13951;49.516;6.094;2023-05-10T02:32:24;12.80;99.90
26212;DHT22;13951;49.516;6.094;2023-05-10T02:35:00;12.80;99.90
26212;DHT22;13951;49.516;6.094;2023-05-10T02:37:34;12.80;99.90
26212;DHT22;13951;49.516;6.094;2023-05-10T02:40:10;12.80;99.90
26212;DHT22;13951;49.516;6.094;2023-05-10T02:42:44;12.80;99.90
26212;DHT22;13951;49.516;6.094;2023-05-10T02:45:21;12.80;99.90
26212;DHT22;13951;49.516;6.094;2023-05-10T02:47:56;12.80;99.90
26212;DHT22;13951;49.516;6.094;2023-05-10T02:50:33;12.80;99.90
26212;DHT22;13951;49.516;6.094;2023-05-10T02:53:23;12.70;99.90
26212;DHT22;13951;49.516;6.094;2023-05-10T02:55:59;12.70;99.90
26212;DHT22;13951;49.516;6.094;2023-05-10T02:58:33;12.70;99.90
26212;DHT22;13951;49.516;6.094;2023-05-10T03:01:06;12.70;99.90
26212;DHT22;13951;49.516;6.094;2023-05-10T03:03:40;12.70;99.90
26212;DHT22;13951;49.516;6.094;2023-05-10T03:06:13;12.70;99.90
26212;DHT22;13951;49.516;6.094;2023-05-10T03:08:46;12.70;99.90
26212;DHT22;13951;49.516;6.094;2023-05-10T03:20:29;12.60;99.90
26212;DHT22;13951;49.516;6.094;2023-05-10T03:23:13;12.60;99.90
26212;DHT22;13951;49.516;6.094;2023-05-10T03:25:52;12.60;99.90
26212;DHT22;13951;49.516;6.094;2023-05-10T03:28:26;12.60;99.90
26212;DHT22;13951;49.516;6.094;2023-05-10T03:31:00;12.60;99.90
26212;DHT22;13951;49.516;6.094;2023-05-10T03:33:35;12.60;99.90
26212;DHT22;13951;49.516;6.094;2023-05-10T03:36:08;12.60;99.90
26212;DHT22;13951;49.516;6.094;2023-05-10T03:38:41;12.60;99.90
26212;DHT22;13951;49.516;6.094;2023-05-10T03:41:15;12.50;99.90
26212;DHT22;13951;49.516;6.094;2023-05-10T03:43:48;12.50;99.90
26212;DHT22;13951;49.516;6.094;2023-05-10T03:46:21;12.50;99.90
26212;DHT22;13951;49.516;6.094;2023-05-10T03:48:55;12.50;99.90
26212;DHT22;13951;49.516;6.094;2023-05-10T03:51:29;12.50;99.90
26212;DHT22;13951;49.516;6.094;2023-05-10T03:54:04;12.50;99.90
26212;DHT22;13951;49.516;6.094;2023-05-10T03:56:37;12.50;99.90
26212;DHT22;13951;49.516;6.094;2023-05-10T03:59:10;12.50;99.90
26212;DHT22;13951;49.516;6.094;2023-05-10T04:01:43;12.50;99.90
26212;DHT22;13951;49.516;6.094;2023-05-10T04:04:17;12.50;99.90
26212;DHT22;13951;49.516;6.094;2023-05-10T04:06:53;12.50;99.90
26212;DHT22;13951;49.516;6.094;2023-05-10T04:09:27;12.40;99.90
26212;DHT22;13951;49.516;6.094;2023-05-10T04:12:00;12.40;99.90
26212;DHT22;13951;49.516;6.094;2023-05-10T04:14:35;12.40;99.90
26212;DHT22;13951;49.516;6.094;2023-05-10T04:17:08;12.30;99.90
26212;DHT22;13951;49.516;6.094;2023-05-10T04:19:41;12.30;99.90
26212;DHT22;13951;49.516;6.094;2023-05-10T04:22:13;12.30;99.90
26212;DHT22;13951;49.516;6.094;2023-05-10T04:24:47;12.30;99.90
26212;DHT22;13951;49.516;6.094;2023-05-10T04:27:19;12.30;99.90
26212;DHT22;13951;49.516;6.094;2023-05-10T04:29:52;12.30;99.90
26212;DHT22;13951;49.516;6.094;2023-05-10T04:32:25;12.40;99.90
26212;DHT22;13951;49.516;6.094;2023-05-10T04:34:58;12.40;99.90
26212;DHT22;13951;49.516;6.094;2023-05-10T04:37:31;12.40;99.90
26212;DHT22;13951;49.516;6.094;2023-05-10T04:40:05;12.40;99.90
26212;DHT22;13951;49.516;6.094;2023-05-10T04:42:43;12.40;99.90
26212;DHT22;13951;49.516;6.094;2023-05-10T04:45:16;12.50;99.90
26212;DHT22;13951;49.516;6.094;2023-05-10T04:47:49;12.40;99.90
26212;DHT22;13951;49.516;6.094;2023-05-10T04:50:22;12.50;99.90
26212;DHT22;13951;49.516;6.094;2023-05-10T04:52:55;12.50;99.90
26212;DHT22;13951;49.516;6.094;2023-05-10T04:55:28;12.50;99.90
26212;DHT22;13951;49.516;6.094;2023-05-10T04:58:02;12.60;99.90
26212;DHT22;13951;49.516;6.094;2023-05-10T05:00:35;12.60;99.90
26212;DHT22;13951;49.516;6.094;2023-05-10T05:03:08;12.60;99.90
26212;DHT22;13951;49.516;6.094;2023-05-10T05:05:41;12.60;99.90
26212;DHT22;13951;49.516;6.094;2023-05-10T05:08:14;12.70;99.90
26212;DHT22;13951;49.516;6.094;2023-05-10T05:10:48;12.70;99.90
26212;DHT22;13951;49.516;6.094;2023-05-10T05:19:32;12.60;99.90
26212;DHT22;13951;49.516;6.094;2023-05-10T05:22:06;12.50;99.90
26212;DHT22;13951;49.516;6.094;2023-05-10T05:24:40;12.40;99.90
26212;DHT22;13951;49.516;6.094;2023-05-10T05:27:13;12.40;99.90
26212;DHT22;13951;49.516;6.094;2023-05-10T05:29:46;12.50;99.90
26212;DHT22;13951;49.516;6.094;2023-05-10T05:32:19;12.40;99.90
26212;DHT22;13951;49.516;6.094;2023-05-10T05:34:52;12.50;99.90
26212;DHT22;13951;49.516;6.094;2023-05-10T05:37:25;12.50;99.90
26212;DHT22;13951;49.516;6.094;2023-05-10T05:39:57;12.60;99.90
26212;DHT22;13951;49.516;6.094;2023-05-10T05:42:32;12.60;99.90
26212;DHT22;13951;49.516;6.094;2023-05-10T05:45:06;12.60;99.90
26212;DHT22;13951;49.516;6.094;2023-05-10T05:47:39;12.60;99.90
26212;DHT22;13951;49.516;6.094;2023-05-10T05:50:13;12.60;99.90
26212;DHT22;13951;49.516;6.094;2023-05-10T05:52:46;12.70;99.90
26212;DHT22;13951;49.516;6.094;2023-05-10T05:55:19;12.70;99.90
26212;DHT22;13951;49.516;6.094;2023-05-10T05:57:52;12.80;99.90
26212;DHT22;13951;49.516;6.094;2023-05-10T06:00:26;12.80;99.90
26212;DHT22;13951;49.516;6.094;2023-05-10T06:02:59;12.80;99.90
26212;DHT22;13951;49.516;6.094;2023-05-10T06:05:32;12.80;99.90
26212;DHT22;13951;49.516;6.094;2023-05-10T06:08:05;12.80;99.90
26212;DHT22;13951;49.516;6.094;2023-05-10T06:10:38;12.80;99.90
26212;DHT22;13951;49.516;6.094;2023-05-10T06:13:11;12.90;99.90
26212;DHT22;13951;49.516;6.094;2023-05-10T06:15:44;12.90;99.90
26212;DHT22;13951;49.516;6.094;2023-05-10T06:18:17;13.00;99.90
26212;DHT22;13951;49.516;6.094;2023-05-10T06:20:50;13.00;99.90
26212;DHT22;13951;49.516;6.094;2023-05-10T06:23:23;13.00;99.90
26212;DHT22;13951;49.516;6.094;2023-05-10T06:25:57;13.00;99.90
26212;DHT22;13951;49.516;6.094;2023-05-10T06:28:30;13.00;99.90
26212;DHT22;13951;49.516;6.094;2023-05-10T06:31:05;13.00;99.90
26212;DHT22;13951;49.516;6.094;2023-05-10T06:33:37;13.00;99.90
26212;DHT22;13951;49.516;6.094;2023-05-10T06:36:10;13.00;99.90
26212;DHT22;13951;49.516;6.094;2023-05-10T06:38:43;13.00;99.90
26212;DHT22;13951;49.516;6.094;2023-05-10T06:41:16;12.90;99.90
26212;DHT22;13951;49.516;6.094;2023-05-10T06:43:49;13.00;99.90
26212;DHT22;13951;49.516;6.094;2023-05-10T06:46:21;13.00;99.90
26212;DHT22;13951;49.516;6.094;2023-05-10T06:48:54;13.00;99.90
26212;DHT22;13951;49.516;6.094;2023-05-10T06:51:27;13.00;99.90
26212;DHT22;13951;49.516;6.094;2023-05-10T06:54:00;13.10;99.90
26212;DHT22;13951;49.516;6.094;2023-05-10T06:56:32;13.10;99.90
26212;DHT22;13951;49.516;6.094;2023-05-10T06:59:06;13.10;99.90
26212;DHT22;13951;49.516;6.094;2023-05-10T07:01:39;13.20;99.90
26212;DHT22;13951;49.516;6.094;2023-05-10T07:04:12;13.20;99.90
26212;DHT22;13951;49.516;6.094;2023-05-10T07:06:46;13.20;99.90
26212;DHT22;13951;49.516;6.094;2023-05-10T07:09:21;13.20;99.90
26212;DHT22;13951;49.516;6.094;2023-05-10T07:11:54;13.20;99.90
26212;DHT22;13951;49.516;6.094;2023-05-10T07:14:27;13.20;99.90
26212;DHT22;13951;49.516;6.094;2023-05-10T07:17:01;13.10;99.90
26212;DHT22;13951;49.516;6.094;2023-05-10T07:19:34;13.00;99.90
26212;DHT22;13951;49.516;6.094;2023-05-10T07:22:07;13.00;99.90
26212;DHT22;13951;49.516;6.094;2023-05-10T07:24:40;12.90;99.90
26212;DHT22;13951;49.516;6.094;2023-05-10T07:27:13;12.90;99.90
26212;DHT22;13951;49.516;6.094;2023-05-10T07:29:46;12.90;99.90
26212;DHT22;13951;49.516;6.094;2023-05-10T07:32:19;12.90;99.90
26212;DHT22;13951;49.516;6.094;2023-05-10T07:34:52;12.90;99.90
26212;DHT22;13951;49.516;6.094;2023-05-10T07:37:25;12.90;99.90
26212;DHT22;13951;49.516;6.094;2023-05-10T07:39:58;12.90;99.90
26212;DHT22;13951;49.516;6.094;2023-05-10T07:42:31;12.90;99.90
26212;DHT22;13951;49.516;6.094;2023-05-10T07:45:04;12.90;99.90
26212;DHT22;13951;49.516;6.094;2023-05-10T07:47:39;12.90;99.90
26212;DHT22;13951;49.516;6.094;2023-05-10T07:50:12;13.00;99.90
26212;DHT22;13951;49.516;6.094;2023-05-10T07:52:45;13.00;99.90
26212;DHT22;13951;49.516;6.094;2023-05-10T07:55:18;13.00;99.90
26212;DHT22;13951;49.516;6.094;2023-05-10T07:57:52;13.00;99.90
26212;DHT22;13951;49.516;6.094;2023-05-10T08:00:25;13.00;99.90
26212;DHT22;13951;49.516;6.094;2023-05-10T08:02:58;12.90;99.90
26212;DHT22;13951;49.516;6.094;2023-05-10T08:05:31;12.90;99.90
26212;DHT22;13951;49.516;6.094;2023-05-10T08:08:07;12.80;99.90
26212;DHT22;13951;49.516;6.094;2023-05-10T08:10:40;12.70;99.90
26212;DHT22;13951;49.516;6.094;2023-05-10T08:13:13;12.70;99.90
26212;DHT22;13951;49.516;6.094;2023-05-10T08:15:46;12.60;99.90
26212;DHT22;13951;49.516;6.094;2023-05-10T08:18:20;12.70;99.90
26212;DHT22;13951;49.516;6.094;2023-05-10T08:20:54;12.80;99.90
26212;DHT22;13951;49.516;6.094;2023-05-10T08:23:28;12.80;99.90
26212;DHT22;13951;49.516;6.094;2023-05-10T08:26:01;12.80;99.90
26212;DHT22;13951;49.516;6.094;2023-05-10T08:28:34;12.90;99.90
26212;DHT22;13951;49.516;6.094;2023-05-10T08:31:07;12.90;99.90
26212;DHT22;13951;49.516;6.094;2023-05-10T08:33:40;13.00;99.90
26212;DHT22;13951;49.516;6.094;2023-05-10T08:36:16;13.00;99.90
26212;DHT22;13951;49.516;6.094;2023-05-10T08:38:54;13.10;99.90
26212;DHT22;13951;49.516;6.094;2023-05-10T08:41:28;13.20;99.90
26212;DHT22;13951;49.516;6.094;2023-05-10T08:44:04;13.20;99.90
26212;DHT22;13951;49.516;6.094;2023-05-10T08:46:37;13.30;99.90
26212;DHT22;13951;49.516;6.094;2023-05-10T08:49:13;13.40;99.90
26212;DHT22;13951;49.516;6.094;2023-05-10T08:51:53;13.70;99.90
26212;DHT22;13951;49.516;6.094;2023-05-10T08:54:27;13.90;99.90
26212;DHT22;13951;49.516;6.094;2023-05-10T08:57:02;14.10;99.90
26212;DHT22;13951;49.516;6.094;2023-05-10T08:59:36;14.10;99.90
26212;DHT22;13951;49.516;6.094;2023-05-10T09:02:13;14.10;99.90
26212;DHT22;13951;49.516;6.094;2023-05-10T09:04:49;14.10;99.90
26212;DHT22;13951;49.516;6.094;2023-05-10T09:07:22;14.20;99.90
26212;DHT22;13951;49.516;6.094;2023-05-10T09:09:56;14.30;99.90
26212;DHT22;13951;49.516;6.094;2023-05-10T09:12:29;14.30;99.90
26212;DHT22;13951;49.516;6.094;2023-05-10T09:15:04;14.30;99.90
26212;DHT22;13951;49.516;6.094;2023-05-10T09:17:39;14.50;99.90
26212;DHT22;13951;49.516;6.094;2023-05-10T09:20:13;14.50;99.90
26212;DHT22;13951;49.516;6.094;2023-05-10T09:22:46;14.70;99.90
26212;DHT22;13951;49.516;6.094;2023-05-10T09:25:20;15.20;99.90
26212;DHT22;13951;49.516;6.094;2023-05-10T09:27:54;15.60;99.90
26212;DHT22;13951;49.516;6.094;2023-05-10T09:30:31;15.80;99.90
26212;DHT22;13951;49.516;6.094;2023-05-10T09:33:05;16.00;99.90
26212;DHT22;13951;49.516;6.094;2023-05-10T09:35:38;16.20;99.90
26212;DHT22;13951;49.516;6.094;2023-05-10T09:38:12;16.20;99.90
26212;DHT22;13951;49.516;6.094;2023-05-10T09:40:51;16.10;99.90
26212;DHT22;13951;49.516;6.094;2023-05-10T09:43:27;16.10;99.90
26212;DHT22;13951;49.516;6.094;2023-05-10T09:46:08;16.10;99.90
26212;DHT22;13951;49.516;6.094;2023-05-10T09:48:47;15.90;99.90
26212;DHT22;13951;49.516;6.094;2023-05-10T09:51:21;15.80;99.90
26212;DHT22;13951;49.516;6.094;2023-05-10T09:54:24;15.80;99.90
26212;DHT22;13951;49.516;6.094;2023-05-10T09:56:57;15.80;99.90
26212;DHT22;13951;49.516;6.094;2023-05-10T09:59:33;16.00;99.90
26212;DHT22;13951;49.516;6.094;2023-05-10T10:02:07;16.40;99.90
26212;DHT22;13951;49.516;6.094;2023-05-10T10:04:41;16.60;99.90
26212;DHT22;13951;49.516;6.094;2023-05-10T10:07:14;16.60;99.90
26212;DHT22;13951;49.516;6.094;2023-05-10T10:09:46;16.80;99.90
26212;DHT22;13951;49.516;6.094;2023-05-10T10:12:19;16.90;99.90
26212;DHT22;13951;49.516;6.094;2023-05-10T10:14:53;16.90;99.90
26212;DHT22;13951;49.516;6.094;2023-05-10T10:17:27;16.90;99.90
26212;DHT22;13951;49.516;6.094;2023-05-10T10:20:02;16.70;99.90
26212;DHT22;13951;49.516;6.094;2023-05-10T10:22:37;16.40;99.90
26212;DHT22;13951;49.516;6.094;2023-05-10T10:25:11;16.20;99.90
26212;DHT22;13951;49.516;6.094;2023-05-10T10:30:36;15.50;99.90
26212;DHT22;13951;49.516;6.094;2023-05-10T10:36:02;15.10;99.90
26212;DHT22;13951;49.516;6.094;2023-05-10T10:41:34;15.10;99.90
26212;DHT22;13951;49.516;6.094;2023-05-10T10:50:05;15.10;99.90
26212;DHT22;13951;49.516;6.094;2023-05-10T10:55:13;15.40;99.90
26212;DHT22;13951;49.516;6.094;2023-05-10T10:57:54;15.60;99.90
26212;DHT22;13951;49.516;6.094;2023-05-10T11:00:36;15.80;99.90
26212;DHT22;13951;49.516;6.094;2023-05-10T11:03:13;15.90;99.90
26212;DHT22;13951;49.516;6.094;2023-05-10T11:05:48;15.90;99.90
26212;DHT22;13951;49.516;6.094;2023-05-10T11:08:32;15.90;99.90
26212;DHT22;13951;49.516;6.094;2023-05-10T11:11:09;16.00;99.90
26212;DHT22;13951;49.516;6.094;2023-05-10T11:13:46;16.20;99.90
26212;DHT22;13951;49.516;6.094;2023-05-10T11:16:24;16.20;99.90
26212;DHT22;13951;49.516;6.094;2023-05-10T11:19:07;16.30;99.90
26212;DHT22;13951;49.516;6.094;2023-05-10T11:22:12;16.60;99.90
26212;DHT22;13951;49.516;6.094;2023-05-10T11:24:57;17.00;99.90
26212;DHT22;13951;49.516;6.094;2023-05-10T11:27:37;17.00;99.90
26212;DHT22;13951;49.516;6.094;2023-05-10T11:30:11;17.00;99.90
26212;DHT22;13951;49.516;6.094;2023-05-10T11:32:44;17.40;99.90
26212;DHT22;13951;49.516;6.094;2023-05-10T11:35:17;17.80;99.90
26212;DHT22;13951;49.516;6.094;2023-05-10T11:37:50;18.30;99.90
26212;DHT22;13951;49.516;6.094;2023-05-10T11:40:23;18.50;99.90
26212;DHT22;13951;49.516;6.094;2023-05-10T11:42:59;18.50;99.90
26212;DHT22;13951;49.516;6.094;2023-05-10T11:45:32;18.30;99.90
26212;DHT22;13951;49.516;6.094;2023-05-10T11:48:06;18.10;99.90
26212;DHT22;13951;49.516;6.094;2023-05-10T11:50:39;17.90;99.90
26212;DHT22;13951;49.516;6.094;2023-05-10T11:53:13;17.80;99.90
26212;DHT22;13951;49.516;6.094;2023-05-10T11:55:46;17.60;99.90
26212;DHT22;13951;49.516;6.094;2023-05-10T11:58:20;17.50;99.90
26212;DHT22;13951;49.516;6.094;2023-05-10T12:00:53;17.50;99.90
26212;DHT22;13951;49.516;6.094;2023-05-10T12:03:27;17.50;99.90
26212;DHT22;13951;49.516;6.094;2023-05-10T12:06:01;17.50;99.90
26212;DHT22;13951;49.516;6.094;2023-05-10T12:08:34;17.60;99.90
26212;DHT22;13951;49.516;6.094;2023-05-10T12:11:09;17.70;99.90
26212;DHT22;13951;49.516;6.094;2023-05-10T12:13:43;17.70;99.90
26212;DHT22;13951;49.516;6.094;2023-05-10T12:18:56;17.90;99.90
26212;DHT22;13951;49.516;6.094;2023-05-10T12:21:30;18.20;99.90
26212;DHT22;13951;49.516;6.094;2023-05-10T12:24:03;18.50;99.90
26212;DHT22;13951;49.516;6.094;2023-05-10T12:26:38;18.70;99.90
26212;DHT22;13951;49.516;6.094;2023-05-10T12:29:15;18.60;99.90
26212;DHT22;13951;49.516;6.094;2023-05-10T12:31:53;18.40;99.90
26212;DHT22;13951;49.516;6.094;2023-05-10T12:34:31;18.50;99.90
26212;DHT22;13951;49.516;6.094;2023-05-10T12:37:04;18.60;99.90
26212;DHT22;13951;49.516;6.094;2023-05-10T12:39:44;18.50;99.90
26212;DHT22;13951;49.516;6.094;2023-05-10T12:42:18;18.60;99.90
26212;DHT22;13951;49.516;6.094;2023-05-10T12:44:57;18.70;99.90
26212;DHT22;13951;49.516;6.094;2023-05-10T12:47:31;18.60;99.90
26212;DHT22;13951;49.516;6.094;2023-05-10T12:50:05;18.50;99.90
26212;DHT22;13951;49.516;6.094;2023-05-10T12:52:38;18.40;99.90
26212;DHT22;13951;49.516;6.094;2023-05-10T12:55:11;18.30;99.90
26212;DHT22;13951;49.516;6.094;2023-05-10T12:57:43;18.30;99.90
26212;DHT22;13951;49.516;6.094;2023-05-10T13:00:16;18.30;99.90
26212;DHT22;13951;49.516;6.094;2023-05-10T13:02:50;18.20;99.90
26212;DHT22;13951;49.516;6.094;2023-05-10T13:05:23;18.10;99.90
26212;DHT22;13951;49.516;6.094;2023-05-10T13:07:55;18.10;99.90
26212;DHT22;13951;49.516;6.094;2023-05-10T13:10:29;18.20;99.90
26212;DHT22;13951;49.516;6.094;2023-05-10T13:13:03;18.20;99.90
26212;DHT22;13951;49.516;6.094;2023-05-10T13:15:36;18.20;99.90
26212;DHT22;13951;49.516;6.094;2023-05-10T13:18:09;18.30;99.90
26212;DHT22;13951;49.516;6.094;2023-05-10T13:20:42;18.30;99.90
26212;DHT22;13951;49.516;6.094;2023-05-10T13:23:16;18.30;99.90
26212;DHT22;13951;49.516;6.094;2023-05-10T13:25:50;18.20;99.90
26212;DHT22;13951;49.516;6.094;2023-05-10T13:28:23;18.10;99.90
26212;DHT22;13951;49.516;6.094;2023-05-10T13:30:56;18.00;99.90
26212;DHT22;13951;49.516;6.094;2023-05-10T13:33:29;17.90;99.90
26212;DHT22;13951;49.516;6.094;2023-05-10T13:36:02;17.80;99.90
26212;DHT22;13951;49.516;6.094;2023-05-10T13:38:35;17.70;99.90
26212;DHT22;13951;49.516;6.094;2023-05-10T13:41:08;17.70;99.90
26212;DHT22;13951;49.516;6.094;2023-05-10T13:43:41;17.70;99.90
26212;DHT22;13951;49.516;6.094;2023-05-10T13:46:13;17.70;99.90
26212;DHT22;13951;49.516;6.094;2023-05-10T13:48:47;17.70;99.90
26212;DHT22;13951;49.516;6.094;2023-05-10T13:51:20;17.60;99.90
26212;DHT22;13951;49.516;6.094;2023-05-10T13:53:53;17.60;99.90
26212;DHT22;13951;49.516;6.094;2023-05-10T13:56:26;17.60;99.90
26212;DHT22;13951;49.516;6.094;2023-05-10T13:58:59;17.50;99.90
26212;DHT22;13951;49.516;6.094;2023-05-10T14:01:32;17.50;99.90
26212;DHT22;13951;49.516;6.094;2023-05-10T14:04:05;17.40;99.90
26212;DHT22;13951;49.516;6.094;2023-05-10T14:06:38;17.40;99.90
26212;DHT22;13951;49.516;6.094;2023-05-10T14:09:11;17.40;99.90
26212;DHT22;13951;49.516;6.094;2023-05-10T14:11:44;17.40;99.90
26212;DHT22;13951;49.516;6.094;2023-05-10T14:14:17;17.50;99.90
26212;DHT22;13951;49.516;6.094;2023-05-10T14:16:50;17.50;99.90
26212;DHT22;13951;49.516;6.094;2023-05-10T14:19:23;17.40;99.90
26212;DHT22;13951;49.516;6.094;2023-05-10T14:21:56;17.30;99.90
26212;DHT22;13951;49.516;6.094;2023-05-10T14:24:29;17.20;99.90
26212;DHT22;13951;49.516;6.094;2023-05-10T14:27:02;17.10;99.90
26212;DHT22;13951;49.516;6.094;2023-05-10T14:29:35;17.10;99.90
26212;DHT22;13951;49.516;6.094;2023-05-10T14:32:08;17.10;99.90
26212;DHT22;13951;49.516;6.094;2023-05-10T14:34:41;17.10;99.90
26212;DHT22;13951;49.516;6.094;2023-05-10T14:37:14;17.10;99.90
26212;DHT22;13951;49.516;6.094;2023-05-10T14:39:48;17.20;99.90
26212;DHT22;13951;49.516;6.094;2023-05-10T14:42:20;17.30;99.90
26212;DHT22;13951;49.516;6.094;2023-05-10T14:44:53;17.40;99.90
26212;DHT22;13951;49.516;6.094;2023-05-10T14:47:26;17.40;99.90
26212;DHT22;13951;49.516;6.094;2023-05-10T14:49:59;17.30;99.90
26212;DHT22;13951;49.516;6.094;2023-05-10T14:52:32;17.30;99.90
26212;DHT22;13951;49.516;6.094;2023-05-10T14:55:06;17.30;99.90
26212;DHT22;13951;49.516;6.094;2023-05-10T14:57:39;17.30;99.90
26212;DHT22;13951;49.516;6.094;2023-05-10T15:00:12;17.30;99.90
26212;DHT22;13951;49.516;6.094;2023-05-10T15:02:48;17.30;99.90
26212;DHT22;13951;49.516;6.094;2023-05-10T15:05:23;17.20;99.90
26212;DHT22;13951;49.516;6.094;2023-05-10T15:07:56;17.10;99.90
26212;DHT22;13951;49.516;6.094;2023-05-10T15:10:29;17.10;99.90
26212;DHT22;13951;49.516;6.094;2023-05-10T15:13:05;17.00;99.90
26212;DHT22;13951;49.516;6.094;2023-05-10T15:15:38;16.80;99.90
26212;DHT22;13951;49.516;6.094;2023-05-10T15:18:11;16.70;99.90
26212;DHT22;13951;49.516;6.094;2023-05-10T15:20:44;16.60;99.90
26212;DHT22;13951;49.516;6.094;2023-05-10T15:23:17;16.40;99.90
26212;DHT22;13951;49.516;6.094;2023-05-10T15:25:50;16.20;99.90
26212;DHT22;13951;49.516;6.094;2023-05-10T15:28:24;16.10;99.90
26212;DHT22;13951;49.516;6.094;2023-05-10T15:30:58;16.00;99.90
26212;DHT22;13951;49.516;6.094;2023-05-10T15:33:32;16.00;99.90
26212;DHT22;13951;49.516;6.094;2023-05-10T15:36:05;16.00;99.90
26212;DHT22;13951;49.516;6.094;2023-05-10T15:38:38;16.00;99.90
26212;DHT22;13951;49.516;6.094;2023-05-10T15:41:11;16.00;99.90
26212;DHT22;13951;49.516;6.094;2023-05-10T15:43:44;16.10;99.90
26212;DHT22;13951;49.516;6.094;2023-05-10T15:46:17;16.20;99.90
26212;DHT22;13951;49.516;6.094;2023-05-10T15:48:50;16.30;99.90
26212;DHT22;13951;49.516;6.094;2023-05-10T15:51:23;16.40;99.90
26212;DHT22;13951;49.516;6.094;2023-05-10T15:53:55;16.50;99.90
26212;DHT22;13951;49.516;6.094;2023-05-10T15:56:39;16.60;99.90
26212;DHT22;13951;49.516;6.094;2023-05-10T15:59:13;16.70;99.90
26212;DHT22;13951;49.516;6.094;2023-05-10T16:01:46;16.80;99.90
26212;DHT22;13951;49.516;6.094;2023-05-10T16:04:19;16.90;99.90
26212;DHT22;13951;49.516;6.094;2023-05-10T16:06:52;16.90;99.90
26212;DHT22;13951;49.516;6.094;2023-05-10T16:09:25;16.90;99.90
26212;DHT22;13951;49.516;6.094;2023-05-10T16:11:58;16.90;99.90
26212;DHT22;13951;49.516;6.094;2023-05-10T16:14:31;16.90;99.90
26212;DHT22;13951;49.516;6.094;2023-05-10T16:17:06;16.80;99.90
26212;DHT22;13951;49.516;6.094;2023-05-10T16:19:39;16.80;99.90
26212;DHT22;13951;49.516;6.094;2023-05-10T16:22:13;16.70;99.90
26212;DHT22;13951;49.516;6.094;2023-05-10T16:24:45;16.70;99.90
26212;DHT22;13951;49.516;6.094;2023-05-10T16:27:19;16.70;99.90
26212;DHT22;13951;49.516;6.094;2023-05-10T16:29:52;16.60;99.90
26212;DHT22;13951;49.516;6.094;2023-05-10T16:32:25;16.50;99.90
26212;DHT22;13951;49.516;6.094;2023-05-10T16:34:58;16.40;99.90
26212;DHT22;13951;49.516;6.094;2023-05-10T16:37:31;16.40;99.90
26212;DHT22;13951;49.516;6.094;2023-05-10T16:40:04;16.20;99.90
26212;DHT22;13951;49.516;6.094;2023-05-10T16:42:38;16.20;99.90
26212;DHT22;13951;49.516;6.094;2023-05-10T16:45:11;16.10;99.90
26212;DHT22;13951;49.516;6.094;2023-05-10T16:47:44;15.90;99.90
26212;DHT22;13951;49.516;6.094;2023-05-10T16:50:17;15.90;99.90
26212;DHT22;13951;49.516;6.094;2023-05-10T16:52:51;15.80;99.90
26212;DHT22;13951;49.516;6.094;2023-05-10T16:55:23;15.80;99.90
26212;DHT22;13951;49.516;6.094;2023-05-10T16:57:58;15.80;99.90
26212;DHT22;13951;49.516;6.094;2023-05-10T17:00:32;15.80;99.90
26212;DHT22;13951;49.516;6.094;2023-05-10T17:03:05;15.70;99.90